sensor_id;sensor_type;location;lat;lon;timestamp;pressure;altitude;pressure_sealevel;temperature;humidity
64253;BME280;50592;52.958;-7.470;2023-04-01T00:00:02;99212.53;;;9.28;100.00
64253;BME280;50592;52.958;-7.470;2023-04-01T00:02:38;99209.25;;;9.26;100.00
64253;BME280;50592;52.958;-7.470;2023-04-01T00:05:06;99206.59;;;9.26;100.00
64253;BME280;50592;52.958;-7.470;2023-04-01T00:07:36;99214.84;;;9.23;100.00
64253;BME280;50592;52.958;-7.470;2023-04-01T00:10:07;99214.19;;;9.21;100.00
64253;BME280;50592;52.958;-7.470;2023-04-01T00:12:38;99218.31;;;9.23;100.00
64253;BME280;50592;52.958;-7.470;2023-04-01T00:15:09;99219.94;;;9.24;100.00
64253;BME280;50592;52.958;-7.470;2023-04-01T00:17:40;99218.31;;;9.23;100.00
64253;BME280;50592;52.958;-7.470;2023-04-01T00:20:10;99211.38;;;9.22;100.00
64253;BME280;50592;52.958;-7.470;2023-04-01T00:22:40;99218.66;;;9.20;100.00
64253;BME280;50592;52.958;-7.470;2023-04-01T00:25:10;99216.19;;;9.18;100.00
64253;BME280;50592;52.958;-7.470;2023-04-01T00:27:40;99217.97;;;9.18;100.00
64253;BME280;50592;52.958;-7.470;2023-04-01T00:30:10;99223.25;;;9.18;100.00
64253;BME280;50592;52.958;-7.470;2023-04-01T00:32:40;99224.25;;;9.17;100.00
64253;BME280;50592;52.958;-7.470;2023-04-01T00:35:10;99218.97;;;9.17;100.00
64253;BME280;50592;52.958;-7.470;2023-04-01T00:37:41;99216.19;;;9.18;100.00
64253;BME280;50592;52.958;-7.470;2023-04-01T00:40:21;99224.88;;;9.19;100.00
64253;BME280;50592;52.958;-7.470;2023-04-01T00:42:51;99224.88;;;9.19;100.00
64253;BME280;50592;52.958;-7.470;2023-04-01T00:45:37;99221.13;;;9.22;100.00
64253;BME280;50592;52.958;-7.470;2023-04-01T00:48:50;99219.44;;;9.21;100.00
64253;BME280;50592;52.958;-7.470;2023-04-01T00:50:59;99226.41;;;9.22;100.00
64253;BME280;50592;52.958;-7.470;2023-04-01T00:53:31;99223.59;;;9.23;100.00
64253;BME280;50592;52.958;-7.470;2023-04-01T00:56:21;99219.28;;;9.22;100.00
64253;BME280;50592;52.958;-7.470;2023-04-01T00:58:54;99224.72;;;9.21;100.00
64253;BME280;50592;52.958;-7.470;2023-04-01T01:01:27;99221.91;;;9.22;100.00
64253;BME280;50592;52.958;-7.470;2023-04-01T01:03:58;99224.72;;;9.21;100.00
64253;BME280;50592;52.958;-7.470;2023-04-01T01:06:35;99221.91;;;9.22;100.00
64253;BME280;50592;52.958;-7.470;2023-04-01T01:09:25;99221.13;;;9.22;100.00
64253;BME280;50592;52.958;-7.470;2023-04-01T01:12:11;99222.91;;;9.21;100.00
64253;BME280;50592;52.958;-7.470;2023-04-01T01:15:06;99219.63;;;9.19;100.00
64253;BME280;50592;52.958;-7.470;2023-04-01T01:17:36;99223.25;;;9.18;100.00
64253;BME280;50592;52.958;-7.470;2023-04-01T01:28:35;99230.16;;;9.19;100.00
64253;BME280;50592;52.958;-7.470;2023-04-01T01:34:01;99229.38;;;9.18;100.00
64253;BME280;50592;52.958;-7.470;2023-04-01T01:36:36;99237.28;;;9.18;100.00
64253;BME280;50592;52.958;-7.470;2023-04-01T01:39:10;99232.16;;;9.17;100.00
64253;BME280;50592;52.958;-7.470;2023-04-01T01:41:41;99237.59;;;9.15;100.00
64253;BME280;50592;52.958;-7.470;2023-04-01T01:44:13;99237.78;;;9.14;100.00
64253;BME280;50592;52.958;-7.470;2023-04-01T01:46:44;99243.22;;;9.12;100.00
64253;BME280;50592;52.958;-7.470;2023-04-01T01:49:14;99240.91;;;9.09;100.00
64253;BME280;50592;52.958;-7.470;2023-04-01T01:51:46;99248.13;;;9.07;100.00
64253;BME280;50592;52.958;-7.470;2023-04-01T01:54:15;99254.75;;;9.03;100.00
64253;BME280;50592;52.958;-7.470;2023-04-01T01:56:46;99255.88;;;9.00;100.00
64253;BME280;50592;52.958;-7.470;2023-04-01T01:59:13;99249.94;;;8.98;100.00
64253;BME280;50592;52.958;-7.470;2023-04-01T02:01:45;99245.66;;;8.97;100.00
64253;BME280;50592;52.958;-7.470;2023-04-01T02:04:13;99258.00;;;8.97;100.00
64253;BME280;50592;52.958;-7.470;2023-04-01T02:06:55;99257.03;;;8.98;100.00
64253;BME280;50592;52.958;-7.470;2023-04-01T02:09:27;99254.72;;;8.95;100.00
64253;BME280;50592;52.958;-7.470;2023-04-01T02:12:06;99267.72;;;8.96;100.00
64253;BME280;50592;52.958;-7.470;2023-04-01T02:14:42;99270.88;;;9.00;100.00
64253;BME280;50592;52.958;-7.470;2023-04-01T02:17:14;99262.97;;;9.00;100.00
64253;BME280;50592;52.958;-7.470;2023-04-01T02:19:58;99270.56;;;9.03;100.00
64253;BME280;50592;52.958;-7.470;2023-04-01T02:22:30;99270.22;;;9.06;100.00
64253;BME280;50592;52.958;-7.470;2023-04-01T02:25:02;99269.38;;;9.05;100.00
64253;BME280;50592;52.958;-7.470;2023-04-01T02:27:34;99269.56;;;9.04;100.00
64253;BME280;50592;52.958;-7.470;2023-04-01T02:30:04;99277.47;;;9.04;100.00
64253;BME280;50592;52.958;-7.470;2023-04-01T02:32:34;99275.81;;;9.03;100.00
64253;BME280;50592;52.958;-7.470;2023-04-01T02:35:07;99279.44;;;9.02;100.00
64253;BME280;50592;52.958;-7.470;2023-04-01T02:37:39;99273.34;;;9.01;100.00
64253;BME280;50592;52.958;-7.470;2023-04-01T02:40:12;99274.31;;;9.00;100.00
64253;BME280;50592;52.958;-7.470;2023-04-01T02:42:42;99280.41;;;9.01;100.00
64253;BME280;50592;52.958;-7.470;2023-04-01T02:45:13;99283.06;;;9.01;100.00
64253;BME280;50592;52.958;-7.470;2023-04-01T02:47:43;99281.25;;;9.01;100.00
64253;BME280;50592;52.958;-7.470;2023-04-01T02:50:13;99277.78;;;9.01;100.00
64253;BME280;50592;52.958;-7.470;2023-04-01T02:52:43;99284.19;;;8.98;100.00
64253;BME280;50592;52.958;-7.470;2023-04-01T02:55:12;99292.75;;;9.00;100.00
64253;BME280;50592;52.958;-7.470;2023-04-01T02:57:40;99283.38;;;8.98;100.00
64253;BME280;50592;52.958;-7.470;2023-04-01T03:00:08;99295.22;;;8.93;100.00
64253;BME280;50592;52.958;-7.470;2023-04-01T03:02:38;99290.13;;;8.92;100.00
64253;BME280;50592;52.958;-7.470;2023-04-01T03:05:07;99297.38;;;8.90;100.00
64253;BME280;50592;52.958;-7.470;2023-04-01T03:07:34;99295.72;;;8.89;100.00
64253;BME280;50592;52.958;-7.470;2023-04-01T03:10:04;99292.09;;;8.90;100.00
64253;BME280;50592;52.958;-7.470;2023-04-01T03:12:31;99295.53;;;8.90;100.00
64253;BME280;50592;52.958;-7.470;2023-04-01T03:15:01;99299.19;;;8.89;100.00
64253;BME280;50592;52.958;-7.470;2023-04-01T03:17:30;99301.97;;;8.88;100.00
64253;BME280;50592;52.958;-7.470;2023-04-01T03:20:00;99309.72;;;8.89;100.00
64253;BME280;50592;52.958;-7.470;2023-04-01T03:22:27;99306.25;;;8.89;100.00
64253;BME280;50592;52.958;-7.470;2023-04-01T03:24:55;99308.88;;;8.89;100.00
64253;BME280;50592;52.958;-7.470;2023-04-01T03:27:22;99310.56;;;8.90;100.00
64253;BME280;50592;52.958;-7.470;2023-04-01T03:29:51;99308.72;;;8.90;100.00
64253;BME280;50592;52.958;-7.470;2023-04-01T03:32:18;99324.84;;;8.87;100.00
64253;BME280;50592;52.958;-7.470;2023-04-01T03:34:47;99327.31;;;8.89;100.00
64253;BME280;50592;52.958;-7.470;2023-04-01T03:37:13;99313.34;;;8.88;100.00
64253;BME280;50592;52.958;-7.470;2023-04-01T03:39:42;99320.41;;;8.88;100.00
64253;BME280;50592;52.958;-7.470;2023-04-01T03:42:09;99325.34;;;8.83;100.00
64253;BME280;50592;52.958;-7.470;2023-04-01T03:44:37;99318.75;;;8.78;100.00
64253;BME280;50592;52.958;-7.470;2023-04-01T03:47:05;99327.66;;;8.77;100.00
64253;BME280;50592;52.958;-7.470;2023-04-01T03:49:37;99330.28;;;8.77;100.00
64253;BME280;50592;52.958;-7.470;2023-04-01T03:52:10;99330.44;;;8.76;100.00
64253;BME280;50592;52.958;-7.470;2023-04-01T03:54:37;99338.19;;;8.77;100.00
64253;BME280;50592;52.958;-7.470;2023-04-01T03:57:06;99329.28;;;8.78;100.00
64253;BME280;50592;52.958;-7.470;2023-04-01T03:59:33;99335.56;;;8.77;100.00
64253;BME280;50592;52.958;-7.470;2023-04-01T04:02:02;99338.00;;;8.71;100.00
64253;BME280;50592;52.958;-7.470;2023-04-01T04:04:29;99348.03;;;8.67;100.00
64253;BME280;50592;52.958;-7.470;2023-04-01T04:06:59;99343.38;;;8.61;100.00
64253;BME280;50592;52.958;-7.470;2023-04-01T04:09:32;99346.69;;;8.63;100.00
64253;BME280;50592;52.958;-7.470;2023-04-01T04:12:02;99356.19;;;8.55;100.00
64253;BME280;50592;52.958;-7.470;2023-04-01T04:14:34;99354.41;;;8.56;100.00
64253;BME280;50592;52.958;-7.470;2023-04-01T04:17:04;99357.03;;;8.56;100.00
64253;BME280;50592;52.958;-7.470;2023-04-01T04:19:34;99364.78;;;8.58;100.00
64253;BME280;50592;52.958;-7.470;2023-04-01T04:22:04;99365.78;;;8.56;100.00
64253;BME280;50592;52.958;-7.470;2023-04-01T04:24:31;99364.38;;;8.52;100.00
64253;BME280;50592;52.958;-7.470;2023-04-01T04:27:04;99373.00;;;8.54;100.00
64253;BME280;50592;52.958;-7.470;2023-04-01T04:29:32;99374.28;;;8.50;100.00
64253;BME280;50592;52.958;-7.470;2023-04-01T04:31:59;99373.44;;;8.50;100.00
64253;BME280;50592;52.958;-7.470;2023-04-01T04:34:28;99381.19;;;8.51;100.00
64253;BME280;50592;52.958;-7.470;2023-04-01T04:36:55;99383.81;;;8.51;100.00
64253;BME280;50592;52.958;-7.470;2023-04-01T04:39:29;99390.56;;;8.54;100.00
64253;BME280;50592;52.958;-7.470;2023-04-01T04:41:56;99387.66;;;8.57;100.00
64253;BME280;50592;52.958;-7.470;2023-04-01T04:44:25;99392.13;;;8.56;100.00
64253;BME280;50592;52.958;-7.470;2023-04-01T04:46:51;99395.56;;;8.57;100.00
64253;BME280;50592;52.958;-7.470;2023-04-01T04:49:21;99401.25;;;8.52;100.00
64253;BME280;50592;52.958;-7.470;2023-04-01T04:51:51;99404.59;;;8.54;100.00
64253;BME280;50592;52.958;-7.470;2023-04-01T04:54:21;99407.91;;;8.56;100.00
64253;BME280;50592;52.958;-7.470;2023-04-01T04:56:57;99414.16;;;8.55;100.00
64253;BME280;50592;52.958;-7.470;2023-04-01T04:59:25;99420.94;;;8.58;100.00
64253;BME280;50592;52.958;-7.470;2023-04-01T05:02:10;99418.59;;;8.55;100.00
64253;BME280;50592;52.958;-7.470;2023-04-01T05:04:37;99431.78;;;8.55;100.00
64253;BME280;50592;52.958;-7.470;2023-04-01T05:07:08;99427.59;;;8.52;100.00
64253;BME280;50592;52.958;-7.470;2023-04-01T05:09:35;99437.97;;;8.54;100.00
64253;BME280;50592;52.958;-7.470;2023-04-01T05:12:04;99433.56;;;8.54;100.00
64253;BME280;50592;52.958;-7.470;2023-04-01T05:14:50;99436.22;;;8.54;100.00
64253;BME280;50592;52.958;-7.470;2023-04-01T05:17:20;99440.59;;;8.54;100.00
64253;BME280;50592;52.958;-7.470;2023-04-01T05:19:49;99444.13;;;8.54;100.00
64253;BME280;50592;52.958;-7.470;2023-04-01T05:22:17;99442.44;;;8.53;100.00
64253;BME280;50592;52.958;-7.470;2023-04-01T05:24:43;99450.50;;;8.52;100.00
64253;BME280;50592;52.958;-7.470;2023-04-01T05:27:13;99451.31;;;8.52;100.00
64253;BME280;50592;52.958;-7.470;2023-04-01T05:29:41;99460.75;;;8.55;100.00
64253;BME280;50592;52.958;-7.470;2023-04-01T05:32:26;99465.19;;;8.54;100.00
64253;BME280;50592;52.958;-7.470;2023-04-01T05:34:53;99471.94;;;8.57;100.00
64253;BME280;50592;52.958;-7.470;2023-04-01T05:37:22;99473.09;;;8.54;100.00
64253;BME280;50592;52.958;-7.470;2023-04-01T05:39:49;99477.78;;;8.51;100.00
64253;BME280;50592;52.958;-7.470;2023-04-01T05:42:17;99485.19;;;8.47;100.00
64253;BME280;50592;52.958;-7.470;2023-04-01T05:44:44;99488.31;;;8.51;100.00
64253;BME280;50592;52.958;-7.470;2023-04-01T05:47:30;99489.47;;;8.48;100.00
64253;BME280;50592;52.958;-7.470;2023-04-01T05:49:58;99496.19;;;8.42;100.00
64253;BME280;50592;52.958;-7.470;2023-04-01T05:52:26;99502.88;;;8.37;100.00
64253;BME280;50592;52.958;-7.470;2023-04-01T05:54:54;99506.50;;;8.36;100.00
64253;BME280;50592;52.958;-7.470;2023-04-01T05:57:21;99508.47;;;8.34;100.00
64253;BME280;50592;52.958;-7.470;2023-04-01T05:59:49;99507.78;;;8.31;100.00
64253;BME280;50592;52.958;-7.470;2023-04-01T06:02:16;99519.97;;;8.32;100.00
64253;BME280;50592;52.958;-7.470;2023-04-01T06:04:46;99526.06;;;8.33;100.00
64253;BME280;50592;52.958;-7.470;2023-04-01T06:07:16;99529.69;;;8.32;100.00
64253;BME280;50592;52.958;-7.470;2023-04-01T06:09:43;99531.63;;;8.30;100.00
64253;BME280;50592;52.958;-7.470;2023-04-01T06:18:02;99535.03;;;8.22;100.00
64253;BME280;50592;52.958;-7.470;2023-04-01T06:20:44;99542.09;;;8.22;100.00
64253;BME280;50592;52.958;-7.470;2023-04-01T06:28:58;99567.06;;;8.17;100.00
64253;BME280;50592;52.958;-7.470;2023-04-01T06:39:42;99581.97;;;8.09;100.00
64253;BME280;50592;52.958;-7.470;2023-04-01T06:54:03;99611.16;;;8.15;100.00
64253;BME280;50592;52.958;-7.470;2023-04-01T06:56:52;99602.56;;;8.13;100.00
64253;BME280;50592;52.958;-7.470;2023-04-01T06:59:27;99609.47;;;8.14;100.00
64253;BME280;50592;52.958;-7.470;2023-04-01T07:04:40;99623.72;;;8.22;100.00
64253;BME280;50592;52.958;-7.470;2023-04-01T07:07:48;99620.09;;;8.23;100.00
64253;BME280;50592;52.958;-7.470;2023-04-01T07:10:15;99625.06;;;8.26;100.00
64253;BME280;50592;52.958;-7.470;2023-04-01T07:13:06;99643.66;;;8.24;100.00
64253;BME280;50592;52.958;-7.470;2023-04-01T07:16:03;99642.91;;;8.32;100.00
64253;BME280;50592;52.958;-7.470;2023-04-01T07:19:24;99650.78;;;8.32;100.00
64253;BME280;50592;52.958;-7.470;2023-04-01T07:21:58;99649.66;;;8.35;100.00
64253;BME280;50592;52.958;-7.470;2023-04-01T07:24:34;99664.06;;;8.40;100.00
64253;BME280;50592;52.958;-7.470;2023-04-01T07:27:11;99672.75;;;8.41;100.00
64253;BME280;50592;52.958;-7.470;2023-04-01T07:29:39;99665.59;;;8.33;100.00
64253;BME280;50592;52.958;-7.470;2023-04-01T07:32:16;99670.72;;;8.35;100.00
64253;BME280;50592;52.958;-7.470;2023-04-01T07:53:11;99720.91;;;8.33;100.00
64253;BME280;50592;52.958;-7.470;2023-04-01T07:55:45;99723.53;;;8.33;100.00
64253;BME280;50592;52.958;-7.470;2023-04-01T08:08:59;99757.63;;;8.35;100.00
64253;BME280;50592;52.958;-7.470;2023-04-01T08:17:15;99777.19;;;8.32;100.00
64253;BME280;50592;52.958;-7.470;2023-04-01T08:19:56;99770.63;;;8.36;100.00
64253;BME280;50592;52.958;-7.470;2023-04-01T08:22:36;99785.47;;;8.37;100.00
64253;BME280;50592;52.958;-7.470;2023-04-01T08:25:17;99804.72;;;8.38;100.00
64253;BME280;50592;52.958;-7.470;2023-04-01T08:27:48;99789.63;;;8.40;100.00
64253;BME280;50592;52.958;-7.470;2023-04-01T08:30:24;99810.09;;;8.46;100.00
64253;BME280;50592;52.958;-7.470;2023-04-01T08:32:59;99803.03;;;8.47;100.00
64253;BME280;50592;52.958;-7.470;2023-04-01T08:35:34;99814.41;;;8.47;100.00
64253;BME280;50592;52.958;-7.470;2023-04-01T08:38:11;99823.66;;;8.51;100.00
64253;BME280;50592;52.958;-7.470;2023-04-01T08:40:55;99819.34;;;8.60;100.00
64253;BME280;50592;52.958;-7.470;2023-04-01T08:56:41;99863.50;;;8.76;100.00
64253;BME280;50592;52.958;-7.470;2023-04-01T09:08:00;99881.16;;;8.94;100.00
64253;BME280;50592;52.958;-7.470;2023-04-01T09:10:40;99889.91;;;8.95;100.00
64253;BME280;50592;52.958;-7.470;2023-04-01T09:37:36;99927.78;;;9.40;100.00
64253;BME280;50592;52.958;-7.470;2023-04-01T09:43:22;99940.31;;;9.38;100.00
64253;BME280;50592;52.958;-7.470;2023-04-01T09:53:41;99938.19;;;9.41;100.00
64253;BME280;50592;52.958;-7.470;2023-04-01T10:28:24;100011.38;;;9.86;100.00
64253;BME280;50592;52.958;-7.470;2023-04-01T10:42:39;100042.94;;;9.77;100.00
64253;BME280;50592;52.958;-7.470;2023-04-01T10:56:55;100049.44;;;10.01;100.00
64253;BME280;50592;52.958;-7.470;2023-04-01T11:16:33;100083.63;;;10.39;100.00
64253;BME280;50592;52.958;-7.470;2023-04-01T11:24:41;100092.63;;;10.28;100.00
64253;BME280;50592;52.958;-7.470;2023-04-01T11:37:54;100102.69;;;11.14;100.00
64253;BME280;50592;52.958;-7.470;2023-04-01T11:40:51;100090.06;;;11.35;100.00
64253;BME280;50592;52.958;-7.470;2023-04-01T12:06:44;100174.38;;;10.85;100.00
64253;BME280;50592;52.958;-7.470;2023-04-01T12:14:16;100165.59;;;11.02;100.00
64253;BME280;50592;52.958;-7.470;2023-04-01T12:30:37;100192.81;;;11.74;100.00
64253;BME280;50592;52.958;-7.470;2023-04-01T12:49:39;100238.97;;;11.00;100.00
64253;BME280;50592;52.958;-7.470;2023-04-01T12:55:33;100229.78;;;11.31;100.00
64253;BME280;50592;52.958;-7.470;2023-04-01T13:11:20;100277.78;;;11.18;100.00
64253;BME280;50592;52.958;-7.470;2023-04-01T13:14:02;100278.78;;;11.17;100.00
64253;BME280;50592;52.958;-7.470;2023-04-01T13:16:46;100282.72;;;11.13;100.00
64253;BME280;50592;52.958;-7.470;2023-04-01T13:22:11;100296.47;;;11.61;100.00
64253;BME280;50592;52.958;-7.470;2023-04-01T13:24:45;100298.19;;;11.44;100.00
64253;BME280;50592;52.958;-7.470;2023-04-01T13:30:01;100319.75;;;10.95;100.00
64253;BME280;50592;52.958;-7.470;2023-04-01T13:37:54;100323.53;;;11.28;100.00
64253;BME280;50592;52.958;-7.470;2023-04-01T13:46:06;100342.41;;;11.52;100.00
64253;BME280;50592;52.958;-7.470;2023-04-01T13:56:36;100359.47;;;11.76;100.00
64253;BME280;50592;52.958;-7.470;2023-04-01T14:06:56;100395.31;;;10.69;100.00
64253;BME280;50592;52.958;-7.470;2023-04-01T14:09:31;100400.28;;;10.72;100.00
64253;BME280;50592;52.958;-7.470;2023-04-01T14:12:07;100407.63;;;10.78;100.00
64253;BME280;50592;52.958;-7.470;2023-04-01T14:17:43;100400.09;;;11.30;100.00
64253;BME280;50592;52.958;-7.470;2023-04-01T14:20:25;100400.88;;;11.59;100.00
64253;BME280;50592;52.958;-7.470;2023-04-01T14:23:19;100416.84;;;11.67;100.00
64253;BME280;50592;52.958;-7.470;2023-04-01T14:31:30;100433.78;;;11.56;100.00
64253;BME280;50592;52.958;-7.470;2023-04-01T14:37:10;100458.53;;;11.19;100.00
64253;BME280;50592;52.958;-7.470;2023-04-01T14:50:18;100474.41;;;10.33;100.00
64253;BME280;50592;52.958;-7.470;2023-04-01T14:58:18;100486.16;;;10.68;100.00
64253;BME280;50592;52.958;-7.470;2023-04-01T15:14:27;100513.81;;;10.74;100.00
64253;BME280;50592;52.958;-7.470;2023-04-01T15:17:05;100518.47;;;10.62;100.00
64253;BME280;50592;52.958;-7.470;2023-04-01T15:36:16;100552.66;;;9.94;100.00
64253;BME280;50592;52.958;-7.470;2023-04-01T15:44:24;100563.25;;;10.14;100.00
64253;BME280;50592;52.958;-7.470;2023-04-01T15:46:55;100566.88;;;10.13;100.00
64253;BME280;50592;52.958;-7.470;2023-04-01T15:52:05;100571.31;;;10.02;100.00
64253;BME280;50592;52.958;-7.470;2023-04-01T16:05:27;100589.94;;;10.11;100.00
64253;BME280;50592;52.958;-7.470;2023-04-01T16:08:02;100585.50;;;10.11;100.00
64253;BME280;50592;52.958;-7.470;2023-04-01T16:24:12;100610.91;;;10.02;100.00
64253;BME280;50592;52.958;-7.470;2023-04-01T16:37:39;100648.47;;;10.06;100.00
64253;BME280;50592;52.958;-7.470;2023-04-01T16:42:53;100651.22;;;9.95;100.00
64253;BME280;50592;52.958;-7.470;2023-04-01T16:45:33;100648.84;;;9.91;100.00
64253;BME280;50592;52.958;-7.470;2023-04-01T16:48:10;100655.09;;;10.00;100.00
64253;BME280;50592;52.958;-7.470;2023-04-01T16:58:28;100674.53;;;9.89;100.00
64253;BME280;50592;52.958;-7.470;2023-04-01T17:01:03;100668.56;;;9.87;100.00
64253;BME280;50592;52.958;-7.470;2023-04-01T17:03:36;100671.63;;;9.92;100.00
64253;BME280;50592;52.958;-7.470;2023-04-01T17:08:50;100700.56;;;10.04;100.00
64253;BME280;50592;52.958;-7.470;2023-04-01T17:11:27;100700.72;;;10.02;100.00
64253;BME280;50592;52.958;-7.470;2023-04-01T17:14:04;100701.78;;;9.90;100.00
64253;BME280;50592;52.958;-7.470;2023-04-01T17:16:52;100708.44;;;9.84;100.00
64253;BME280;50592;52.958;-7.470;2023-04-01T17:22:12;100720.94;;;9.82;100.00
64253;BME280;50592;52.958;-7.470;2023-04-01T17:27:35;100738.63;;;9.91;100.00
64253;BME280;50592;52.958;-7.470;2023-04-01T17:30:13;100733.59;;;9.88;100.00
64253;BME280;50592;52.958;-7.470;2023-04-01T17:38:13;100742.53;;;9.66;100.00
64253;BME280;50592;52.958;-7.470;2023-04-01T17:40:53;100748.53;;;9.68;100.00
64253;BME280;50592;52.958;-7.470;2023-04-01T17:43:38;100750.19;;;9.69;100.00
64253;BME280;50592;52.958;-7.470;2023-04-01T17:49:03;100769.63;;;9.68;100.00
64253;BME280;50592;52.958;-7.470;2023-04-01T17:51:40;100773.63;;;9.62;100.00
64253;BME280;50592;52.958;-7.470;2023-04-01T17:56:53;100780.50;;;9.53;100.00
64253;BME280;50592;52.958;-7.470;2023-04-01T17:59:38;100780.31;;;9.45;100.00
64253;BME280;50592;52.958;-7.470;2023-04-01T18:21:35;100839.16;;;9.24;100.00
64253;BME280;50592;52.958;-7.470;2023-04-01T18:23:53;100840.53;;;9.18;100.00
64253;BME280;50592;52.958;-7.470;2023-04-01T18:26:32;100843.66;;;9.12;100.00
64253;BME280;50592;52.958;-7.470;2023-04-01T18:31:51;100860.81;;;8.95;100.00
64253;BME280;50592;52.958;-7.470;2023-04-01T18:39:50;100870.94;;;8.78;100.00
64253;BME280;50592;52.958;-7.470;2023-04-01T18:45:26;100878.47;;;8.72;100.00
64253;BME280;50592;52.958;-7.470;2023-04-01T18:53:09;100890.84;;;8.60;100.00
64253;BME280;50592;52.958;-7.470;2023-04-01T18:56:02;100895.72;;;8.53;100.00
64253;BME280;50592;52.958;-7.470;2023-04-01T18:58:34;100895.09;;;8.49;100.00
64253;BME280;50592;52.958;-7.470;2023-04-01T19:03:38;100900.03;;;8.42;100.00
64253;BME280;50592;52.958;-7.470;2023-04-01T19:06:18;100897.72;;;8.38;100.00
64253;BME280;50592;52.958;-7.470;2023-04-01T19:08:48;100913.66;;;8.36;100.00
64253;BME280;50592;52.958;-7.470;2023-04-01T19:11:36;100924.19;;;8.36;100.00
64253;BME280;50592;52.958;-7.470;2023-04-01T19:19:22;100942.75;;;8.35;100.00
64253;BME280;50592;52.958;-7.470;2023-04-01T19:21:56;100940.09;;;8.35;100.00
64253;BME280;50592;52.958;-7.470;2023-04-01T19:32:25;100971.00;;;8.32;100.00
64253;BME280;50592;52.958;-7.470;2023-04-01T19:37:49;100976.28;;;8.32;100.00
64253;BME280;50592;52.958;-7.470;2023-04-01T19:45:23;100990.72;;;8.27;100.00
64253;BME280;50592;52.958;-7.470;2023-04-01T19:53:07;101004.72;;;8.16;100.00
64253;BME280;50592;52.958;-7.470;2023-04-01T19:55:46;101011.88;;;8.14;100.00
64253;BME280;50592;52.958;-7.470;2023-04-01T19:58:26;101007.28;;;8.04;100.00
64253;BME280;50592;52.958;-7.470;2023-04-01T20:01:00;101017.25;;;8.01;100.00
64253;BME280;50592;52.958;-7.470;2023-04-01T20:08:47;101038.25;;;7.89;100.00
64253;BME280;50592;52.958;-7.470;2023-04-01T20:11:28;101033.19;;;7.86;100.00
64253;BME280;50592;52.958;-7.470;2023-04-01T20:25:05;101050.66;;;7.87;100.00
64253;BME280;50592;52.958;-7.470;2023-04-01T20:27:32;101051.84;;;7.83;100.00
64253;BME280;50592;52.958;-7.470;2023-04-01T20:33:12;101055.03;;;7.75;100.00
64253;BME280;50592;52.958;-7.470;2023-04-01T20:40:34;101050.09;;;7.71;100.00
64253;BME280;50592;52.958;-7.470;2023-04-01T20:45:40;101057.88;;;7.72;100.00
64253;BME280;50592;52.958;-7.470;2023-04-01T20:51:05;101070.31;;;7.70;100.00
64253;BME280;50592;52.958;-7.470;2023-04-01T20:53:36;101075.69;;;7.68;100.00
64253;BME280;50592;52.958;-7.470;2023-04-01T21:01:27;101101.13;;;7.68;100.00
64253;BME280;50592;52.958;-7.470;2023-04-01T21:07:29;101117.16;;;7.65;100.00
64253;BME280;50592;52.958;-7.470;2023-04-01T21:17:17;101137.88;;;7.56;100.00
64253;BME280;50592;52.958;-7.470;2023-04-01T21:25:34;101154.31;;;7.60;100.00
64253;BME280;50592;52.958;-7.470;2023-04-01T21:30:53;101148.50;;;7.55;100.00
64253;BME280;50592;52.958;-7.470;2023-04-01T21:38:53;101179.78;;;7.47;100.00
64253;BME280;50592;52.958;-7.470;2023-04-01T21:41:44;101183.25;;;7.47;100.00
64253;BME280;50592;52.958;-7.470;2023-04-01T22:02:21;101215.34;;;7.65;100.00
64253;BME280;50592;52.958;-7.470;2023-04-01T22:04:56;101197.34;;;7.72;100.00
64253;BME280;50592;52.958;-7.470;2023-04-01T22:07:32;101199.44;;;7.80;100.00
64253;BME280;50592;52.958;-7.470;2023-04-01T22:10:11;101193.75;;;7.73;100.00
64253;BME280;50592;52.958;-7.470;2023-04-01T22:18:08;101221.34;;;7.67;100.00
64253;BME280;50592;52.958;-7.470;2023-04-01T22:20:44;101221.16;;;7.57;100.00
64253;BME280;50592;52.958;-7.470;2023-04-01T22:23:31;101220.19;;;7.45;100.00
64253;BME280;50592;52.958;-7.470;2023-04-01T22:28:55;101210.28;;;7.23;100.00
64253;BME280;50592;52.958;-7.470;2023-04-01T22:31:37;101207.84;;;7.20;100.00
64253;BME280;50592;52.958;-7.470;2023-04-01T22:34:32;101213.94;;;7.07;100.00
64253;BME280;50592;52.958;-7.470;2023-04-01T22:40:02;101224.50;;;6.93;100.00
64253;BME280;50592;52.958;-7.470;2023-04-01T22:42:46;101237.84;;;6.90;100.00
64253;BME280;50592;52.958;-7.470;2023-04-01T22:45:18;101238.91;;;6.87;100.00
64253;BME280;50592;52.958;-7.470;2023-04-01T22:48:14;101239.31;;;6.81;100.00
64253;BME280;50592;52.958;-7.470;2023-04-01T22:50:54;101244.88;;;6.76;100.00
64253;BME280;50592;52.958;-7.470;2023-04-01T22:56:17;101235.94;;;6.79;100.00
64253;BME280;50592;52.958;-7.470;2023-04-01T22:58:56;101251.69;;;6.79;100.00
64253;BME280;50592;52.958;-7.470;2023-04-01T23:01:28;101242.25;;;6.76;100.00
64253;BME280;50592;52.958;-7.470;2023-04-01T23:03:59;101243.91;;;6.77;100.00
64253;BME280;50592;52.958;-7.470;2023-04-01T23:06:37;101258.97;;;6.75;100.00
64253;BME280;50592;52.958;-7.470;2023-04-01T23:16:39;101240.84;;;6.70;100.00
64253;BME280;50592;52.958;-7.470;2023-04-01T23:24:30;101266.38;;;6.68;100.00
64253;BME280;50592;52.958;-7.470;2023-04-01T23:27:35;101270.69;;;6.69;100.00
64253;BME280;50592;52.958;-7.470;2023-04-01T23:29:56;101255.88;;;6.68;100.00
64253;BME280;50592;52.958;-7.470;2023-04-01T23:32:26;101249.97;;;6.65;100.00
64253;BME280;50592;52.958;-7.470;2023-04-01T23:34:56;101254.66;;;6.60;100.00
64253;BME280;50592;52.958;-7.470;2023-04-01T23:37:27;101273.34;;;6.55;100.00
64253;BME280;50592;52.958;-7.470;2023-04-01T23:39:57;101273.63;;;6.50;100.00
64253;BME280;50592;52.958;-7.470;2023-04-01T23:42:29;101267.00;;;6.44;100.00
64253;BME280;50592;52.958;-7.470;2023-04-01T23:45:01;101261.09;;;6.41;100.00
64253;BME280;50592;52.958;-7.470;2023-04-01T23:47:36;101260.34;;;6.39;100.00
64253;BME280;50592;52.958;-7.470;2023-04-01T23:50:16;101263.34;;;6.32;100.00
64253;BME280;50592;52.958;-7.470;2023-04-01T23:52:48;101263.53;;;6.29;100.00